sensor_id;sensor_type;location;lat;lon;timestamp;P1;durP1;ratioP1;P2;durP2;ratioP2
35223;SDS011;21367;51.930;8.112;2022-08-21T00:01:14;14.95;;;5.50;;
35223;SDS011;21367;51.930;8.112;2022-08-21T00:06:21;16.40;;;5.50;;
35223;SDS011;21367;51.930;8.112;2022-08-21T00:11:28;12.88;;;6.45;;
35223;SDS011;21367;51.930;8.112;2022-08-21T00:16:32;20.02;;;6.80;;
35223;SDS011;21367;51.930;8.112;2022-08-21T00:21:36;14.68;;;6.28;;
35223;SDS011;21367;51.930;8.112;2022-08-21T00:26:42;16.20;;;6.40;;
35223;SDS011;21367;51.930;8.112;2022-08-21T00:31:47;18.92;;;6.65;;
35223;SDS011;21367;51.930;8.112;2022-08-21T00:36:51;13.75;;;6.40;;
35223;SDS011;21367;51.930;8.112;2022-08-21T00:41:57;18.33;;;6.57;;
35223;SDS011;21367;51.930;8.112;2022-08-21T00:52:05;19.10;;;7.03;;
35223;SDS011;21367;51.930;8.112;2022-08-21T00:57:17;15.70;;;7.22;;
35223;SDS011;21367;51.930;8.112;2022-08-21T01:02:24;20.88;;;7.47;;
35223;SDS011;21367;51.930;8.112;2022-08-21T01:07:29;12.07;;;6.63;;
35223;SDS011;21367;51.930;8.112;2022-08-21T01:12:35;17.23;;;7.57;;
35223;SDS011;21367;51.930;8.112;2022-08-21T01:17:40;21.45;;;9.00;;
35223;SDS011;21367;51.930;8.112;2022-08-21T01:22:47;18.02;;;8.88;;
35223;SDS011;21367;51.930;8.112;2022-08-21T01:27:51;21.38;;;7.85;;
35223;SDS011;21367;51.930;8.112;2022-08-21T01:32:54;16.88;;;8.02;;
35223;SDS011;21367;51.930;8.112;2022-08-21T01:38:02;16.80;;;7.45;;
35223;SDS011;21367;51.930;8.112;2022-08-21T01:43:06;21.15;;;8.93;;
35223;SDS011;21367;51.930;8.112;2022-08-21T01:48:10;25.73;;;8.48;;
35223;SDS011;21367;51.930;8.112;2022-08-21T01:53:16;22.42;;;8.45;;
35223;SDS011;21367;51.930;8.112;2022-08-21T01:58:20;23.95;;;8.50;;
35223;SDS011;21367;51.930;8.112;2022-08-21T02:03:24;18.88;;;8.15;;
35223;SDS011;21367;51.930;8.112;2022-08-21T02:08:31;18.45;;;7.95;;
35223;SDS011;21367;51.930;8.112;2022-08-21T02:13:35;15.20;;;8.32;;
35223;SDS011;21367;51.930;8.112;2022-08-21T02:18:40;18.77;;;8.98;;
35223;SDS011;21367;51.930;8.112;2022-08-21T02:23:47;21.17;;;9.35;;
35223;SDS011;21367;51.930;8.112;2022-08-21T02:28:52;23.60;;;9.50;;
35223;SDS011;21367;51.930;8.112;2022-08-21T02:33:56;28.00;;;9.60;;
35223;SDS011;21367;51.930;8.112;2022-08-21T02:39:03;24.52;;;8.98;;
35223;SDS011;21367;51.930;8.112;2022-08-21T02:44:07;24.10;;;9.63;;
35223;SDS011;21367;51.930;8.112;2022-08-21T02:49:10;14.45;;;7.65;;
35223;SDS011;21367;51.930;8.112;2022-08-21T02:54:17;29.33;;;9.32;;
35223;SDS011;21367;51.930;8.112;2022-08-21T02:59:21;20.85;;;9.10;;
35223;SDS011;21367;51.930;8.112;2022-08-21T03:04:24;18.23;;;8.93;;
35223;SDS011;21367;51.930;8.112;2022-08-21T03:09:31;25.38;;;8.85;;
35223;SDS011;21367;51.930;8.112;2022-08-21T03:19:38;23.45;;;9.60;;
35223;SDS011;21367;51.930;8.112;2022-08-21T03:24:45;21.38;;;8.98;;
35223;SDS011;21367;51.930;8.112;2022-08-21T03:29:49;16.75;;;8.80;;
35223;SDS011;21367;51.930;8.112;2022-08-21T03:34:53;25.60;;;9.40;;
35223;SDS011;21367;51.930;8.112;2022-08-21T03:40:00;23.83;;;10.05;;
35223;SDS011;21367;51.930;8.112;2022-08-21T03:50:09;22.67;;;8.93;;
35223;SDS011;21367;51.930;8.112;2022-08-21T03:55:16;17.92;;;9.02;;
35223;SDS011;21367;51.930;8.112;2022-08-21T04:00:20;22.65;;;8.80;;
35223;SDS011;21367;51.930;8.112;2022-08-21T04:05:25;26.93;;;9.27;;
35223;SDS011;21367;51.930;8.112;2022-08-21T04:10:36;18.02;;;9.43;;
35223;SDS011;21367;51.930;8.112;2022-08-21T04:15:41;24.00;;;10.05;;
35223;SDS011;21367;51.930;8.112;2022-08-21T04:20:46;21.95;;;9.65;;
35223;SDS011;21367;51.930;8.112;2022-08-21T04:25:55;21.90;;;9.55;;
35223;SDS011;21367;51.930;8.112;2022-08-21T04:31:00;28.65;;;10.23;;
35223;SDS011;21367;51.930;8.112;2022-08-21T04:36:05;20.02;;;9.32;;
35223;SDS011;21367;51.930;8.112;2022-08-21T04:41:12;13.77;;;8.55;;
35223;SDS011;21367;51.930;8.112;2022-08-21T04:46:16;19.27;;;9.45;;
35223;SDS011;21367;51.930;8.112;2022-08-21T04:51:21;22.27;;;9.15;;
35223;SDS011;21367;51.930;8.112;2022-08-21T04:56:31;26.55;;;10.30;;
35223;SDS011;21367;51.930;8.112;2022-08-21T05:01:38;21.25;;;10.57;;
35223;SDS011;21367;51.930;8.112;2022-08-21T05:06:45;19.20;;;9.75;;
35223;SDS011;21367;51.930;8.112;2022-08-21T05:11:53;22.20;;;9.15;;
35223;SDS011;21367;51.930;8.112;2022-08-21T05:16:58;16.73;;;8.85;;
35223;SDS011;21367;51.930;8.112;2022-08-21T05:22:02;21.35;;;9.23;;
35223;SDS011;21367;51.930;8.112;2022-08-21T05:27:08;31.90;;;9.55;;
35223;SDS011;21367;51.930;8.112;2022-08-21T05:32:13;20.67;;;8.80;;
35223;SDS011;21367;51.930;8.112;2022-08-21T05:37:17;23.20;;;9.73;;
35223;SDS011;21367;51.930;8.112;2022-08-21T05:42:24;20.63;;;9.60;;
35223;SDS011;21367;51.930;8.112;2022-08-21T05:47:28;21.65;;;8.68;;
35223;SDS011;21367;51.930;8.112;2022-08-21T05:52:32;25.27;;;10.35;;
35223;SDS011;21367;51.930;8.112;2022-08-21T05:57:38;21.10;;;9.40;;
35223;SDS011;21367;51.930;8.112;2022-08-21T06:02:42;18.33;;;9.95;;
35223;SDS011;21367;51.930;8.112;2022-08-21T06:07:46;19.45;;;10.40;;
35223;SDS011;21367;51.930;8.112;2022-08-21T06:12:54;37.75;;;11.25;;
35223;SDS011;21367;51.930;8.112;2022-08-21T06:17:58;18.85;;;9.30;;
35223;SDS011;21367;51.930;8.112;2022-08-21T06:23:03;24.42;;;10.27;;
35223;SDS011;21367;51.930;8.112;2022-08-21T06:28:10;21.23;;;10.70;;
35223;SDS011;21367;51.930;8.112;2022-08-21T06:33:13;31.38;;;12.30;;
35223;SDS011;21367;51.930;8.112;2022-08-21T06:38:18;25.92;;;12.15;;
35223;SDS011;21367;51.930;8.112;2022-08-21T06:43:25;27.02;;;11.63;;
35223;SDS011;21367;51.930;8.112;2022-08-21T06:48:29;24.30;;;12.65;;
35223;SDS011;21367;51.930;8.112;2022-08-21T06:53:34;32.35;;;13.30;;
35223;SDS011;21367;51.930;8.112;2022-08-21T06:58:40;30.58;;;12.70;;
35223;SDS011;21367;51.930;8.112;2022-08-21T07:08:47;21.98;;;13.07;;
35223;SDS011;21367;51.930;8.112;2022-08-21T07:13:54;33.10;;;13.85;;
35223;SDS011;21367;51.930;8.112;2022-08-21T07:18:59;25.65;;;12.90;;
35223;SDS011;21367;51.930;8.112;2022-08-21T07:24:03;29.20;;;12.98;;
35223;SDS011;21367;51.930;8.112;2022-08-21T07:29:10;31.60;;;12.18;;
35223;SDS011;21367;51.930;8.112;2022-08-21T07:34:15;33.33;;;12.35;;
35223;SDS011;21367;51.930;8.112;2022-08-21T07:39:19;26.15;;;12.75;;
35223;SDS011;21367;51.930;8.112;2022-08-21T07:44:26;28.48;;;12.27;;
35223;SDS011;21367;51.930;8.112;2022-08-21T07:49:30;26.63;;;12.80;;
35223;SDS011;21367;51.930;8.112;2022-08-21T07:54:34;25.92;;;10.00;;
35223;SDS011;21367;51.930;8.112;2022-08-21T07:59:40;25.45;;;10.85;;
35223;SDS011;21367;51.930;8.112;2022-08-21T08:09:47;23.48;;;9.85;;
35223;SDS011;21367;51.930;8.112;2022-08-21T08:14:54;22.38;;;10.25;;
35223;SDS011;21367;51.930;8.112;2022-08-21T08:19:58;23.50;;;8.82;;
35223;SDS011;21367;51.930;8.112;2022-08-21T08:25:03;25.85;;;9.10;;
35223;SDS011;21367;51.930;8.112;2022-08-21T08:30:12;25.30;;;7.68;;
35223;SDS011;21367;51.930;8.112;2022-08-21T08:35:18;29.67;;;7.80;;
35223;SDS011;21367;51.930;8.112;2022-08-21T08:40:24;25.67;;;7.75;;
35223;SDS011;21367;51.930;8.112;2022-08-21T08:45:37;23.73;;;6.95;;
35223;SDS011;21367;51.930;8.112;2022-08-21T08:50:45;20.90;;;6.00;;
35223;SDS011;21367;51.930;8.112;2022-08-21T08:55:51;22.30;;;6.53;;
35223;SDS011;21367;51.930;8.112;2022-08-21T09:00:59;26.38;;;5.65;;
35223;SDS011;21367;51.930;8.112;2022-08-21T09:06:05;20.85;;;5.78;;
35223;SDS011;21367;51.930;8.112;2022-08-21T09:11:23;25.27;;;6.03;;
35223;SDS011;21367;51.930;8.112;2022-08-21T09:16:36;14.65;;;4.70;;
35223;SDS011;21367;51.930;8.112;2022-08-21T09:21:47;17.20;;;5.78;;
35223;SDS011;21367;51.930;8.112;2022-08-21T09:27:13;15.55;;;4.32;;
35223;SDS011;21367;51.930;8.112;2022-08-21T09:32:22;16.75;;;4.13;;
35223;SDS011;21367;51.930;8.112;2022-08-21T09:37:27;14.55;;;4.55;;
35223;SDS011;21367;51.930;8.112;2022-08-21T09:42:32;23.77;;;3.97;;
35223;SDS011;21367;51.930;8.112;2022-08-21T09:47:40;20.27;;;4.30;;
35223;SDS011;21367;51.930;8.112;2022-08-21T09:52:47;19.48;;;4.95;;
35223;SDS011;21367;51.930;8.112;2022-08-21T09:57:52;16.90;;;4.65;;
35223;SDS011;21367;51.930;8.112;2022-08-21T10:03:09;26.10;;;4.63;;
35223;SDS011;21367;51.930;8.112;2022-08-21T10:08:18;22.60;;;5.35;;
35223;SDS011;21367;51.930;8.112;2022-08-21T10:13:28;18.58;;;5.10;;
35223;SDS011;21367;51.930;8.112;2022-08-21T10:18:47;16.80;;;4.00;;
35223;SDS011;21367;51.930;8.112;2022-08-21T10:24:05;16.17;;;3.45;;
35223;SDS011;21367;51.930;8.112;2022-08-21T10:29:18;16.67;;;4.60;;
35223;SDS011;21367;51.930;8.112;2022-08-21T10:34:41;16.10;;;3.63;;
35223;SDS011;21367;51.930;8.112;2022-08-21T10:39:53;16.65;;;3.42;;
35223;SDS011;21367;51.930;8.112;2022-08-21T10:45:10;14.87;;;3.70;;
35223;SDS011;21367;51.930;8.112;2022-08-21T10:50:28;14.13;;;3.92;;
35223;SDS011;21367;51.930;8.112;2022-08-21T10:55:35;22.63;;;3.95;;
35223;SDS011;21367;51.930;8.112;2022-08-21T11:00:43;17.10;;;4.30;;
35223;SDS011;21367;51.930;8.112;2022-08-21T11:05:55;13.15;;;3.90;;
35223;SDS011;21367;51.930;8.112;2022-08-21T11:11:05;13.85;;;3.60;;
35223;SDS011;21367;51.930;8.112;2022-08-21T11:16:16;12.45;;;3.80;;
35223;SDS011;21367;51.930;8.112;2022-08-21T11:21:34;14.68;;;3.33;;
35223;SDS011;21367;51.930;8.112;2022-08-21T11:26:42;12.40;;;3.40;;
35223;SDS011;21367;51.930;8.112;2022-08-21T11:31:54;15.23;;;3.20;;
35223;SDS011;21367;51.930;8.112;2022-08-21T11:37:16;15.10;;;3.10;;
35223;SDS011;21367;51.930;8.112;2022-08-21T11:42:27;8.65;;;2.22;;
35223;SDS011;21367;51.930;8.112;2022-08-21T11:47:39;14.50;;;2.20;;
35223;SDS011;21367;51.930;8.112;2022-08-21T11:52:59;13.07;;;2.17;;
35223;SDS011;21367;51.930;8.112;2022-08-21T11:58:07;8.85;;;2.72;;
35223;SDS011;21367;51.930;8.112;2022-08-21T12:03:22;9.85;;;2.40;;
35223;SDS011;21367;51.930;8.112;2022-08-21T12:08:33;9.13;;;2.05;;
35223;SDS011;21367;51.930;8.112;2022-08-21T12:13:39;9.52;;;2.53;;
35223;SDS011;21367;51.930;8.112;2022-08-21T12:19:02;7.30;;;2.10;;
35223;SDS011;21367;51.930;8.112;2022-08-21T12:24:18;13.65;;;2.35;;
35223;SDS011;21367;51.930;8.112;2022-08-21T12:29:35;14.05;;;2.38;;
35223;SDS011;21367;51.930;8.112;2022-08-21T12:34:42;13.13;;;1.90;;
35223;SDS011;21367;51.930;8.112;2022-08-21T12:39:53;8.00;;;1.90;;
35223;SDS011;21367;51.930;8.112;2022-08-21T12:45:03;6.20;;;1.52;;
35223;SDS011;21367;51.930;8.112;2022-08-21T12:50:15;8.25;;;1.77;;
35223;SDS011;21367;51.930;8.112;2022-08-21T12:55:29;7.43;;;2.28;;
35223;SDS011;21367;51.930;8.112;2022-08-21T13:00:35;7.57;;;2.15;;
35223;SDS011;21367;51.930;8.112;2022-08-21T13:05:39;11.90;;;2.30;;
35223;SDS011;21367;51.930;8.112;2022-08-21T13:10:46;4.60;;;1.40;;
35223;SDS011;21367;51.930;8.112;2022-08-21T13:15:56;5.93;;;1.80;;
35223;SDS011;21367;51.930;8.112;2022-08-21T13:21:05;7.20;;;1.73;;
35223;SDS011;21367;51.930;8.112;2022-08-21T13:26:16;5.05;;;1.73;;
35223;SDS011;21367;51.930;8.112;2022-08-21T13:31:24;4.40;;;1.40;;
35223;SDS011;21367;51.930;8.112;2022-08-21T13:36:31;6.20;;;1.40;;
35223;SDS011;21367;51.930;8.112;2022-08-21T13:41:42;5.75;;;1.13;;
35223;SDS011;21367;51.930;8.112;2022-08-21T13:46:48;2.55;;;0.90;;
35223;SDS011;21367;51.930;8.112;2022-08-21T13:51:53;8.65;;;1.70;;
35223;SDS011;21367;51.930;8.112;2022-08-21T13:56:59;6.18;;;1.25;;
35223;SDS011;21367;51.930;8.112;2022-08-21T14:02:08;9.90;;;1.30;;
35223;SDS011;21367;51.930;8.112;2022-08-21T14:07:16;6.15;;;1.40;;
35223;SDS011;21367;51.930;8.112;2022-08-21T14:12:28;7.30;;;1.40;;
35223;SDS011;21367;51.930;8.112;2022-08-21T14:17:36;5.50;;;1.20;;
35223;SDS011;21367;51.930;8.112;2022-08-21T14:22:43;7.75;;;1.38;;
35223;SDS011;21367;51.930;8.112;2022-08-21T14:27:52;4.85;;;1.10;;
35223;SDS011;21367;51.930;8.112;2022-08-21T14:32:59;6.35;;;1.10;;
35223;SDS011;21367;51.930;8.112;2022-08-21T14:43:16;5.88;;;1.20;;
35223;SDS011;21367;51.930;8.112;2022-08-21T14:48:21;6.05;;;1.30;;
35223;SDS011;21367;51.930;8.112;2022-08-21T14:53:26;4.95;;;1.05;;
35223;SDS011;21367;51.930;8.112;2022-08-21T14:58:34;4.78;;;1.00;;
35223;SDS011;21367;51.930;8.112;2022-08-21T15:03:40;7.43;;;1.20;;
35223;SDS011;21367;51.930;8.112;2022-08-21T15:08:43;7.70;;;1.10;;
35223;SDS011;21367;51.930;8.112;2022-08-21T15:13:56;5.83;;;1.10;;
35223;SDS011;21367;51.930;8.112;2022-08-21T15:19:03;5.70;;;1.30;;
35223;SDS011;21367;51.930;8.112;2022-08-21T15:24:07;4.73;;;1.10;;
35223;SDS011;21367;51.930;8.112;2022-08-21T15:29:14;8.45;;;1.50;;
35223;SDS011;21367;51.930;8.112;2022-08-21T15:34:24;8.80;;;1.40;;
35223;SDS011;21367;51.930;8.112;2022-08-21T15:39:29;7.72;;;1.40;;
35223;SDS011;21367;51.930;8.112;2022-08-21T15:49:40;9.80;;;1.63;;
35223;SDS011;21367;51.930;8.112;2022-08-21T15:54:45;9.55;;;1.77;;
35223;SDS011;21367;51.930;8.112;2022-08-21T15:59:53;5.78;;;1.50;;
35223;SDS011;21367;51.930;8.112;2022-08-21T16:04:59;9.57;;;1.92;;
35223;SDS011;21367;51.930;8.112;2022-08-21T16:15:11;3.90;;;1.15;;
35223;SDS011;21367;51.930;8.112;2022-08-21T16:20:19;3.63;;;1.00;;
35223;SDS011;21367;51.930;8.112;2022-08-21T16:25:24;5.75;;;1.15;;
35223;SDS011;21367;51.930;8.112;2022-08-21T16:30:31;4.30;;;1.00;;
35223;SDS011;21367;51.930;8.112;2022-08-21T16:35:36;6.13;;;1.17;;
35223;SDS011;21367;51.930;8.112;2022-08-21T16:40:39;7.50;;;2.03;;
35223;SDS011;21367;51.930;8.112;2022-08-21T16:45:46;5.10;;;1.20;;
35223;SDS011;21367;51.930;8.112;2022-08-21T16:50:50;5.72;;;1.33;;
35223;SDS011;21367;51.930;8.112;2022-08-21T16:55:54;3.72;;;1.25;;
35223;SDS011;21367;51.930;8.112;2022-08-21T17:01:02;12.95;;;4.15;;
35223;SDS011;21367;51.930;8.112;2022-08-21T17:06:09;37.53;;;14.13;;
35223;SDS011;21367;51.930;8.112;2022-08-21T17:11:16;64.23;;;22.40;;
35223;SDS011;21367;51.930;8.112;2022-08-21T17:16:28;77.30;;;26.33;;
35223;SDS011;21367;51.930;8.112;2022-08-21T17:21:32;49.83;;;17.27;;
35223;SDS011;21367;51.930;8.112;2022-08-21T17:26:36;68.30;;;22.65;;
35223;SDS011;21367;51.930;8.112;2022-08-21T17:31:43;69.35;;;22.65;;
35223;SDS011;21367;51.930;8.112;2022-08-21T17:36:46;59.75;;;19.70;;
35223;SDS011;21367;51.930;8.112;2022-08-21T17:41:50;78.13;;;20.85;;
35223;SDS011;21367;51.930;8.112;2022-08-21T17:46:57;118.13;;;39.28;;
35223;SDS011;21367;51.930;8.112;2022-08-21T17:52:02;77.60;;;25.27;;
35223;SDS011;21367;51.930;8.112;2022-08-21T17:57:07;62.53;;;19.80;;
35223;SDS011;21367;51.930;8.112;2022-08-21T18:02:19;52.47;;;17.73;;
35223;SDS011;21367;51.930;8.112;2022-08-21T18:07:24;38.40;;;13.55;;
35223;SDS011;21367;51.930;8.112;2022-08-21T18:12:28;23.15;;;7.25;;
35223;SDS011;21367;51.930;8.112;2022-08-21T18:17:35;15.52;;;5.78;;
35223;SDS011;21367;51.930;8.112;2022-08-21T18:22:39;16.98;;;4.63;;
35223;SDS011;21367;51.930;8.112;2022-08-21T18:27:44;12.98;;;3.85;;
35223;SDS011;21367;51.930;8.112;2022-08-21T18:37:56;10.15;;;3.35;;
35223;SDS011;21367;51.930;8.112;2022-08-21T18:43:00;14.48;;;3.33;;
35223;SDS011;21367;51.930;8.112;2022-08-21T18:48:08;18.90;;;3.13;;
35223;SDS011;21367;51.930;8.112;2022-08-21T18:53:14;7.10;;;2.17;;
35223;SDS011;21367;51.930;8.112;2022-08-21T18:58:20;6.20;;;1.85;;
35223;SDS011;21367;51.930;8.112;2022-08-21T19:03:28;7.00;;;1.48;;
35223;SDS011;21367;51.930;8.112;2022-08-21T19:08:32;7.07;;;1.38;;
35223;SDS011;21367;51.930;8.112;2022-08-21T19:13:35;7.38;;;1.65;;
35223;SDS011;21367;51.930;8.112;2022-08-21T19:18:43;10.33;;;1.50;;
35223;SDS011;21367;51.930;8.112;2022-08-21T19:23:47;9.55;;;2.28;;
35223;SDS011;21367;51.930;8.112;2022-08-21T19:34:02;7.38;;;1.83;;
35223;SDS011;21367;51.930;8.112;2022-08-21T19:39:08;9.57;;;2.00;;
35223;SDS011;21367;51.930;8.112;2022-08-21T19:44:13;9.30;;;2.43;;
35223;SDS011;21367;51.930;8.112;2022-08-21T19:49:23;12.32;;;1.80;;
35223;SDS011;21367;51.930;8.112;2022-08-21T19:54:30;10.32;;;1.70;;
35223;SDS011;21367;51.930;8.112;2022-08-21T19:59:35;9.20;;;1.80;;
35223;SDS011;21367;51.930;8.112;2022-08-21T20:04:43;8.63;;;2.47;;
35223;SDS011;21367;51.930;8.112;2022-08-21T20:09:47;12.48;;;2.30;;
35223;SDS011;21367;51.930;8.112;2022-08-21T20:14:51;8.05;;;2.35;;
35223;SDS011;21367;51.930;8.112;2022-08-21T20:19:58;14.00;;;2.80;;
35223;SDS011;21367;51.930;8.112;2022-08-21T20:25:02;8.50;;;2.10;;
35223;SDS011;21367;51.930;8.112;2022-08-21T20:30:07;8.60;;;2.10;;
35223;SDS011;21367;51.930;8.112;2022-08-21T20:35:16;5.88;;;1.98;;
35223;SDS011;21367;51.930;8.112;2022-08-21T20:40:21;12.57;;;2.70;;
35223;SDS011;21367;51.930;8.112;2022-08-21T20:45:26;13.23;;;2.30;;
35223;SDS011;21367;51.930;8.112;2022-08-21T20:50:36;8.88;;;2.42;;
35223;SDS011;21367;51.930;8.112;2022-08-21T20:55:45;15.18;;;2.65;;
35223;SDS011;21367;51.930;8.112;2022-08-21T21:00:50;10.02;;;2.40;;
35223;SDS011;21367;51.930;8.112;2022-08-21T21:06:00;14.13;;;2.50;;
35223;SDS011;21367;51.930;8.112;2022-08-21T21:11:10;11.60;;;2.63;;
35223;SDS011;21367;51.930;8.112;2022-08-21T21:16:17;6.07;;;2.42;;
35223;SDS011;21367;51.930;8.112;2022-08-21T21:21:30;9.52;;;2.55;;
35223;SDS011;21367;51.930;8.112;2022-08-21T21:26:37;8.65;;;2.65;;
35223;SDS011;21367;51.930;8.112;2022-08-21T21:31:46;7.15;;;2.53;;
35223;SDS011;21367;51.930;8.112;2022-08-21T21:36:53;12.60;;;2.30;;
35223;SDS011;21367;51.930;8.112;2022-08-21T21:42:02;8.23;;;2.38;;
35223;SDS011;21367;51.930;8.112;2022-08-21T21:47:16;9.32;;;2.33;;
35223;SDS011;21367;51.930;8.112;2022-08-21T22:03:45;7.55;;;2.70;;
35223;SDS011;21367;51.930;8.112;2022-08-21T22:08:59;8.82;;;2.63;;
35223;SDS011;21367;51.930;8.112;2022-08-21T22:14:10;9.18;;;3.00;;
35223;SDS011;21367;51.930;8.112;2022-08-21T22:19:17;7.90;;;2.55;;
35223;SDS011;21367;51.930;8.112;2022-08-21T22:24:29;10.20;;;2.90;;
35223;SDS011;21367;51.930;8.112;2022-08-21T22:29:42;11.18;;;2.70;;
35223;SDS011;21367;51.930;8.112;2022-08-21T22:34:59;11.43;;;3.08;;
35223;SDS011;21367;51.930;8.112;2022-08-21T22:40:07;6.30;;;2.67;;
35223;SDS011;21367;51.930;8.112;2022-08-21T22:45:13;9.48;;;2.63;;
35223;SDS011;21367;51.930;8.112;2022-08-21T22:50:27;12.43;;;2.63;;
35223;SDS011;21367;51.930;8.112;2022-08-21T22:55:36;7.55;;;2.40;;
35223;SDS011;21367;51.930;8.112;2022-08-21T23:00:48;10.15;;;2.92;;
35223;SDS011;21367;51.930;8.112;2022-08-21T23:05:55;11.68;;;2.92;;
35223;SDS011;21367;51.930;8.112;2022-08-21T23:11:04;13.50;;;2.75;;
35223;SDS011;21367;51.930;8.112;2022-08-21T23:16:21;5.65;;;2.50;;
35223;SDS011;21367;51.930;8.112;2022-08-21T23:21:36;11.57;;;2.97;;
35223;SDS011;21367;51.930;8.112;2022-08-21T23:26:52;8.82;;;3.60;;
35223;SDS011;21367;51.930;8.112;2022-08-21T23:32:08;9.50;;;3.08;;
35223;SDS011;21367;51.930;8.112;2022-08-21T23:37:29;9.77;;;2.80;;
35223;SDS011;21367;51.930;8.112;2022-08-21T23:42:58;11.30;;;2.67;;
35223;SDS011;21367;51.930;8.112;2022-08-21T23:48:15;10.68;;;3.10;;
35223;SDS011;21367;51.930;8.112;2022-08-21T23:53:28;13.73;;;3.47;;
35223;SDS011;21367;51.930;8.112;2022-08-21T23:58:44;10.80;;;3.00;;
